sensor_id;sensor_type;location;lat;lon;timestamp;temperature;humidity
5850;DHT22;2951;47.712;9.400;2023-02-19T00:01:43;8.60;99.90
5850;DHT22;2951;47.712;9.400;2023-02-19T00:04:11;8.50;99.90
5850;DHT22;2951;47.712;9.400;2023-02-19T00:06:39;8.50;99.90
5850;DHT22;2951;47.712;9.400;2023-02-19T00:09:06;8.40;99.90
5850;DHT22;2951;47.712;9.400;2023-02-19T00:11:33;8.30;99.90
5850;DHT22;2951;47.712;9.400;2023-02-19T00:14:01;8.30;99.90
5850;DHT22;2951;47.712;9.400;2023-02-19T00:16:36;8.20;99.90
5850;DHT22;2951;47.712;9.400;2023-02-19T00:19:03;8.10;99.90
5850;DHT22;2951;47.712;9.400;2023-02-19T00:21:30;8.00;99.90
5850;DHT22;2951;47.712;9.400;2023-02-19T00:23:58;7.90;99.90
5850;DHT22;2951;47.712;9.400;2023-02-19T00:26:26;7.80;99.90
5850;DHT22;2951;47.712;9.400;2023-02-19T00:28:53;7.80;99.90
5850;DHT22;2951;47.712;9.400;2023-02-19T00:31:25;7.80;99.90
5850;DHT22;2951;47.712;9.400;2023-02-19T00:33:53;7.70;99.90
5850;DHT22;2951;47.712;9.400;2023-02-19T00:36:20;7.70;99.90
5850;DHT22;2951;47.712;9.400;2023-02-19T00:38:47;7.70;99.90
5850;DHT22;2951;47.712;9.400;2023-02-19T00:41:14;7.50;99.90
5850;DHT22;2951;47.712;9.400;2023-02-19T00:43:49;7.40;99.90
5850;DHT22;2951;47.712;9.400;2023-02-19T00:46:17;7.30;99.90
5850;DHT22;2951;47.712;9.400;2023-02-19T00:48:44;7.30;99.90
5850;DHT22;2951;47.712;9.400;2023-02-19T00:51:11;7.30;99.90
5850;DHT22;2951;47.712;9.400;2023-02-19T00:53:38;7.10;99.90
5850;DHT22;2951;47.712;9.400;2023-02-19T00:56:04;7.10;99.90
5850;DHT22;2951;47.712;9.400;2023-02-19T00:58:32;7.10;99.90
5850;DHT22;2951;47.712;9.400;2023-02-19T01:00:58;7.10;99.90
5850;DHT22;2951;47.712;9.400;2023-02-19T01:03:25;7.10;99.90
5850;DHT22;2951;47.712;9.400;2023-02-19T01:05:52;7.00;99.90
5850;DHT22;2951;47.712;9.400;2023-02-19T01:08:19;7.00;99.90
5850;DHT22;2951;47.712;9.400;2023-02-19T01:10:46;7.00;99.90
5850;DHT22;2951;47.712;9.400;2023-02-19T01:13:13;7.00;99.90
5850;DHT22;2951;47.712;9.400;2023-02-19T01:15:40;7.10;99.90
5850;DHT22;2951;47.712;9.400;2023-02-19T01:18:06;7.10;99.90
5850;DHT22;2951;47.712;9.400;2023-02-19T01:20:33;7.00;99.90
5850;DHT22;2951;47.712;9.400;2023-02-19T01:23:00;7.00;99.90
5850;DHT22;2951;47.712;9.400;2023-02-19T01:25:26;7.00;99.90
5850;DHT22;2951;47.712;9.400;2023-02-19T01:27:53;6.90;99.90
5850;DHT22;2951;47.712;9.400;2023-02-19T01:30:20;6.90;99.90
5850;DHT22;2951;47.712;9.400;2023-02-19T01:32:46;6.90;99.90
5850;DHT22;2951;47.712;9.400;2023-02-19T01:35:13;7.00;99.90
5850;DHT22;2951;47.712;9.400;2023-02-19T01:37:40;7.00;99.90
5850;DHT22;2951;47.712;9.400;2023-02-19T01:40:06;7.10;99.90
5850;DHT22;2951;47.712;9.400;2023-02-19T01:42:33;7.10;99.90
5850;DHT22;2951;47.712;9.400;2023-02-19T01:47:45;7.30;99.90
5850;DHT22;2951;47.712;9.400;2023-02-19T01:50:12;7.30;99.90
5850;DHT22;2951;47.712;9.400;2023-02-19T01:52:39;7.30;99.90
5850;DHT22;2951;47.712;9.400;2023-02-19T01:55:06;7.30;99.90
5850;DHT22;2951;47.712;9.400;2023-02-19T01:57:34;7.30;99.90
5850;DHT22;2951;47.712;9.400;2023-02-19T02:00:07;7.20;99.90
5850;DHT22;2951;47.712;9.400;2023-02-19T02:02:35;7.20;99.90
5850;DHT22;2951;47.712;9.400;2023-02-19T02:05:01;7.20;99.90
5850;DHT22;2951;47.712;9.400;2023-02-19T02:07:28;7.10;99.90
5850;DHT22;2951;47.712;9.400;2023-02-19T02:10:13;7.10;99.90
5850;DHT22;2951;47.712;9.400;2023-02-19T02:12:46;7.00;99.90
5850;DHT22;2951;47.712;9.400;2023-02-19T02:15:13;7.00;99.90
5850;DHT22;2951;47.712;9.400;2023-02-19T02:17:50;7.10;99.90
5850;DHT22;2951;47.712;9.400;2023-02-19T02:20:41;7.20;99.90
5850;DHT22;2951;47.712;9.400;2023-02-19T02:28:42;7.50;99.90
5850;DHT22;2951;47.712;9.400;2023-02-19T02:31:17;7.50;99.90
5850;DHT22;2951;47.712;9.400;2023-02-19T02:33:58;7.60;99.90
5850;DHT22;2951;47.712;9.400;2023-02-19T02:36:28;7.70;99.90
5850;DHT22;2951;47.712;9.400;2023-02-19T02:38:56;7.70;99.90
5850;DHT22;2951;47.712;9.400;2023-02-19T02:41:23;7.80;99.90
5850;DHT22;2951;47.712;9.400;2023-02-19T02:43:50;7.90;99.90
5850;DHT22;2951;47.712;9.400;2023-02-19T02:46:21;8.00;99.90
5850;DHT22;2951;47.712;9.400;2023-02-19T02:48:52;8.00;99.90
5850;DHT22;2951;47.712;9.400;2023-02-19T02:51:26;8.00;99.90
5850;DHT22;2951;47.712;9.400;2023-02-19T02:56:45;8.10;99.90
5850;DHT22;2951;47.712;9.400;2023-02-19T02:59:15;8.20;99.90
5850;DHT22;2951;47.712;9.400;2023-02-19T03:01:53;8.20;99.90
5850;DHT22;2951;47.712;9.400;2023-02-19T03:10:08;8.30;99.90
5850;DHT22;2951;47.712;9.400;2023-02-19T03:12:37;8.30;99.90
5850;DHT22;2951;47.712;9.400;2023-02-19T03:15:26;8.40;99.90
5850;DHT22;2951;47.712;9.400;2023-02-19T03:18:12;8.50;99.90
5850;DHT22;2951;47.712;9.400;2023-02-19T03:20:58;8.50;99.90
5850;DHT22;2951;47.712;9.400;2023-02-19T03:23:26;8.50;99.90
5850;DHT22;2951;47.712;9.400;2023-02-19T03:26:14;8.50;99.90
5850;DHT22;2951;47.712;9.400;2023-02-19T03:28:43;8.50;99.90
5850;DHT22;2951;47.712;9.400;2023-02-19T03:31:29;8.50;99.90
5850;DHT22;2951;47.712;9.400;2023-02-19T03:33:58;8.50;99.90
5850;DHT22;2951;47.712;9.400;2023-02-19T03:36:27;8.60;99.90
5850;DHT22;2951;47.712;9.400;2023-02-19T03:38:57;8.60;99.90
5850;DHT22;2951;47.712;9.400;2023-02-19T03:41:28;8.50;99.90
5850;DHT22;2951;47.712;9.400;2023-02-19T03:44:10;8.60;99.90
5850;DHT22;2951;47.712;9.400;2023-02-19T03:46:47;8.70;99.90
5850;DHT22;2951;47.712;9.400;2023-02-19T03:49:33;8.70;99.90
5850;DHT22;2951;47.712;9.400;2023-02-19T03:54:56;8.70;99.90
5850;DHT22;2951;47.712;9.400;2023-02-19T04:00:02;8.70;99.90
5850;DHT22;2951;47.712;9.400;2023-02-19T04:02:34;8.70;99.90
5850;DHT22;2951;47.712;9.400;2023-02-19T04:05:08;8.60;99.90
5850;DHT22;2951;47.712;9.400;2023-02-19T04:07:36;8.60;99.90
5850;DHT22;2951;47.712;9.400;2023-02-19T04:10:04;8.60;99.90
5850;DHT22;2951;47.712;9.400;2023-02-19T04:12:32;8.60;99.90
5850;DHT22;2951;47.712;9.400;2023-02-19T04:15:01;8.50;99.90
5850;DHT22;2951;47.712;9.400;2023-02-19T04:17:30;8.60;99.90
5850;DHT22;2951;47.712;9.400;2023-02-19T04:19:59;8.50;99.90
5850;DHT22;2951;47.712;9.400;2023-02-19T04:22:26;8.50;99.90
5850;DHT22;2951;47.712;9.400;2023-02-19T04:24:53;8.60;99.90
5850;DHT22;2951;47.712;9.400;2023-02-19T04:27:20;8.50;99.90
5850;DHT22;2951;47.712;9.400;2023-02-19T04:29:47;8.60;99.90
5850;DHT22;2951;47.712;9.400;2023-02-19T04:32:14;8.60;99.90
5850;DHT22;2951;47.712;9.400;2023-02-19T04:34:41;8.50;99.90
5850;DHT22;2951;47.712;9.400;2023-02-19T04:37:07;8.60;99.90
5850;DHT22;2951;47.712;9.400;2023-02-19T04:39:34;8.50;99.90
5850;DHT22;2951;47.712;9.400;2023-02-19T04:42:00;8.50;99.90
5850;DHT22;2951;47.712;9.400;2023-02-19T04:44:27;8.50;99.90
5850;DHT22;2951;47.712;9.400;2023-02-19T04:46:54;8.50;99.90
5850;DHT22;2951;47.712;9.400;2023-02-19T04:49:21;8.50;99.90
5850;DHT22;2951;47.712;9.400;2023-02-19T04:51:47;8.40;99.90
5850;DHT22;2951;47.712;9.400;2023-02-19T04:54:14;8.40;99.90
5850;DHT22;2951;47.712;9.400;2023-02-19T04:56:40;8.40;99.90
5850;DHT22;2951;47.712;9.400;2023-02-19T04:59:07;8.30;99.90
5850;DHT22;2951;47.712;9.400;2023-02-19T05:01:34;8.30;99.90
5850;DHT22;2951;47.712;9.400;2023-02-19T05:04:00;8.30;99.90
5850;DHT22;2951;47.712;9.400;2023-02-19T05:06:27;8.40;99.90
5850;DHT22;2951;47.712;9.400;2023-02-19T05:08:53;8.30;99.90
5850;DHT22;2951;47.712;9.400;2023-02-19T05:11:20;8.30;99.90
5850;DHT22;2951;47.712;9.400;2023-02-19T05:13:49;8.30;99.90
5850;DHT22;2951;47.712;9.400;2023-02-19T05:16:15;8.30;99.90
5850;DHT22;2951;47.712;9.400;2023-02-19T05:18:43;8.30;99.90
5850;DHT22;2951;47.712;9.400;2023-02-19T05:21:10;8.20;99.90
5850;DHT22;2951;47.712;9.400;2023-02-19T05:23:37;8.30;99.90
5850;DHT22;2951;47.712;9.400;2023-02-19T05:26:04;8.30;99.90
5850;DHT22;2951;47.712;9.400;2023-02-19T05:28:32;8.30;99.90
5850;DHT22;2951;47.712;9.400;2023-02-19T05:31:02;8.30;99.90
5850;DHT22;2951;47.712;9.400;2023-02-19T05:33:29;8.20;99.90
5850;DHT22;2951;47.712;9.400;2023-02-19T05:35:55;8.30;99.90
5850;DHT22;2951;47.712;9.400;2023-02-19T05:38:22;8.30;99.90
5850;DHT22;2951;47.712;9.400;2023-02-19T05:40:49;8.30;99.90
5850;DHT22;2951;47.712;9.400;2023-02-19T05:43:16;8.30;99.90
5850;DHT22;2951;47.712;9.400;2023-02-19T05:45:42;8.30;99.90
5850;DHT22;2951;47.712;9.400;2023-02-19T05:48:09;8.30;99.90
5850;DHT22;2951;47.712;9.400;2023-02-19T05:50:36;8.20;99.90
5850;DHT22;2951;47.712;9.400;2023-02-19T05:53:05;8.20;99.90
5850;DHT22;2951;47.712;9.400;2023-02-19T05:55:35;8.30;99.90
5850;DHT22;2951;47.712;9.400;2023-02-19T05:58:01;8.40;99.90
5850;DHT22;2951;47.712;9.400;2023-02-19T06:00:28;8.30;99.90
5850;DHT22;2951;47.712;9.400;2023-02-19T06:02:55;8.30;99.90
5850;DHT22;2951;47.712;9.400;2023-02-19T06:05:22;8.30;99.90
5850;DHT22;2951;47.712;9.400;2023-02-19T06:07:48;8.30;99.90
5850;DHT22;2951;47.712;9.400;2023-02-19T06:10:18;8.30;99.90
5850;DHT22;2951;47.712;9.400;2023-02-19T06:12:44;8.30;99.90
5850;DHT22;2951;47.712;9.400;2023-02-19T06:15:11;8.40;99.90
5850;DHT22;2951;47.712;9.400;2023-02-19T06:17:38;8.40;99.90
5850;DHT22;2951;47.712;9.400;2023-02-19T06:20:05;8.40;99.90
5850;DHT22;2951;47.712;9.400;2023-02-19T06:22:31;8.50;99.90
5850;DHT22;2951;47.712;9.400;2023-02-19T06:24:58;8.60;99.90
5850;DHT22;2951;47.712;9.400;2023-02-19T06:27:24;8.70;99.90
5850;DHT22;2951;47.712;9.400;2023-02-19T06:29:51;8.70;99.90
5850;DHT22;2951;47.712;9.400;2023-02-19T06:32:18;8.60;99.90
5850;DHT22;2951;47.712;9.400;2023-02-19T06:34:45;8.60;99.90
5850;DHT22;2951;47.712;9.400;2023-02-19T06:37:11;8.70;99.90
5850;DHT22;2951;47.712;9.400;2023-02-19T06:39:38;8.60;99.90
5850;DHT22;2951;47.712;9.400;2023-02-19T06:42:04;8.60;99.90
5850;DHT22;2951;47.712;9.400;2023-02-19T06:44:31;8.60;99.90
5850;DHT22;2951;47.712;9.400;2023-02-19T06:46:58;8.60;99.90
5850;DHT22;2951;47.712;9.400;2023-02-19T06:49:24;8.60;99.90
5850;DHT22;2951;47.712;9.400;2023-02-19T06:51:51;8.60;99.90
5850;DHT22;2951;47.712;9.400;2023-02-19T06:54:18;8.60;99.90
5850;DHT22;2951;47.712;9.400;2023-02-19T06:56:44;8.70;99.90
5850;DHT22;2951;47.712;9.400;2023-02-19T06:59:13;8.60;99.90
5850;DHT22;2951;47.712;9.400;2023-02-19T07:01:42;8.60;99.90
5850;DHT22;2951;47.712;9.400;2023-02-19T07:04:09;8.50;99.90
5850;DHT22;2951;47.712;9.400;2023-02-19T07:06:36;8.50;99.90
5850;DHT22;2951;47.712;9.400;2023-02-19T07:09:03;8.50;99.90
5850;DHT22;2951;47.712;9.400;2023-02-19T07:11:31;8.60;99.90
5850;DHT22;2951;47.712;9.400;2023-02-19T07:13:58;8.50;99.90
5850;DHT22;2951;47.712;9.400;2023-02-19T07:16:25;8.50;99.90
5850;DHT22;2951;47.712;9.400;2023-02-19T07:18:54;8.50;99.90
5850;DHT22;2951;47.712;9.400;2023-02-19T07:21:21;8.50;99.90
5850;DHT22;2951;47.712;9.400;2023-02-19T07:23:48;8.50;99.90
5850;DHT22;2951;47.712;9.400;2023-02-19T07:26:16;8.60;99.90
5850;DHT22;2951;47.712;9.400;2023-02-19T07:28:43;8.70;99.90
5850;DHT22;2951;47.712;9.400;2023-02-19T07:31:09;8.80;99.90
5850;DHT22;2951;47.712;9.400;2023-02-19T07:33:37;8.90;99.90
5850;DHT22;2951;47.712;9.400;2023-02-19T07:36:05;9.10;99.90
5850;DHT22;2951;47.712;9.400;2023-02-19T07:38:32;9.20;99.90
5850;DHT22;2951;47.712;9.400;2023-02-19T07:40:59;9.30;99.90
5850;DHT22;2951;47.712;9.400;2023-02-19T07:43:30;9.40;99.90
5850;DHT22;2951;47.712;9.400;2023-02-19T07:45:57;9.40;99.90
5850;DHT22;2951;47.712;9.400;2023-02-19T07:48:24;9.30;99.90
5850;DHT22;2951;47.712;9.400;2023-02-19T07:50:51;9.40;99.90
5850;DHT22;2951;47.712;9.400;2023-02-19T07:53:18;9.50;99.90
5850;DHT22;2951;47.712;9.400;2023-02-19T07:55:45;9.50;99.90
5850;DHT22;2951;47.712;9.400;2023-02-19T07:58:12;9.50;99.90
5850;DHT22;2951;47.712;9.400;2023-02-19T08:00:38;9.50;99.90
5850;DHT22;2951;47.712;9.400;2023-02-19T08:03:05;9.60;99.90
5850;DHT22;2951;47.712;9.400;2023-02-19T08:05:33;9.60;99.90
5850;DHT22;2951;47.712;9.400;2023-02-19T08:08:00;9.60;99.90
5850;DHT22;2951;47.712;9.400;2023-02-19T08:10:26;9.70;99.90
5850;DHT22;2951;47.712;9.400;2023-02-19T08:13:12;9.70;99.90
5850;DHT22;2951;47.712;9.400;2023-02-19T08:15:45;9.70;99.90
5850;DHT22;2951;47.712;9.400;2023-02-19T08:18:12;9.80;99.90
5850;DHT22;2951;47.712;9.400;2023-02-19T08:20:39;9.90;99.90
5850;DHT22;2951;47.712;9.400;2023-02-19T08:23:06;10.10;99.90
5850;DHT22;2951;47.712;9.400;2023-02-19T08:25:33;10.20;99.90
5850;DHT22;2951;47.712;9.400;2023-02-19T08:28:00;10.20;99.90
5850;DHT22;2951;47.712;9.400;2023-02-19T08:30:27;10.20;99.90
5850;DHT22;2951;47.712;9.400;2023-02-19T08:32:54;10.30;99.90
5850;DHT22;2951;47.712;9.400;2023-02-19T08:35:21;10.20;99.90
5850;DHT22;2951;47.712;9.400;2023-02-19T08:37:47;10.20;99.90
5850;DHT22;2951;47.712;9.400;2023-02-19T08:40:14;10.20;99.90
5850;DHT22;2951;47.712;9.400;2023-02-19T08:42:41;10.10;99.90
5850;DHT22;2951;47.712;9.400;2023-02-19T08:45:08;10.10;99.90
5850;DHT22;2951;47.712;9.400;2023-02-19T08:47:35;10.10;99.90
5850;DHT22;2951;47.712;9.400;2023-02-19T08:50:02;10.00;99.90
5850;DHT22;2951;47.712;9.400;2023-02-19T08:52:30;10.00;99.90
5850;DHT22;2951;47.712;9.400;2023-02-19T08:54:57;10.10;99.90
5850;DHT22;2951;47.712;9.400;2023-02-19T08:57:24;10.00;99.90
5850;DHT22;2951;47.712;9.400;2023-02-19T08:59:51;9.90;99.90
5850;DHT22;2951;47.712;9.400;2023-02-19T09:02:18;9.90;99.90
5850;DHT22;2951;47.712;9.400;2023-02-19T09:04:45;9.90;99.90
5850;DHT22;2951;47.712;9.400;2023-02-19T09:07:11;10.00;99.90
5850;DHT22;2951;47.712;9.400;2023-02-19T09:09:38;9.90;99.90
5850;DHT22;2951;47.712;9.400;2023-02-19T09:12:05;10.00;99.90
5850;DHT22;2951;47.712;9.400;2023-02-19T09:14:32;10.10;99.90
5850;DHT22;2951;47.712;9.400;2023-02-19T09:17:00;10.10;99.90
5850;DHT22;2951;47.712;9.400;2023-02-19T09:19:27;10.10;99.90
5850;DHT22;2951;47.712;9.400;2023-02-19T09:21:54;10.20;99.90
5850;DHT22;2951;47.712;9.400;2023-02-19T09:24:20;10.10;99.90
5850;DHT22;2951;47.712;9.400;2023-02-19T09:26:48;10.10;99.90
5850;DHT22;2951;47.712;9.400;2023-02-19T09:29:15;10.10;99.90
5850;DHT22;2951;47.712;9.400;2023-02-19T09:31:42;10.10;99.90
5850;DHT22;2951;47.712;9.400;2023-02-19T09:34:09;10.00;99.90
5850;DHT22;2951;47.712;9.400;2023-02-19T09:36:37;9.90;99.90
5850;DHT22;2951;47.712;9.400;2023-02-19T09:39:04;10.00;99.90
5850;DHT22;2951;47.712;9.400;2023-02-19T09:41:34;9.90;99.90
5850;DHT22;2951;47.712;9.400;2023-02-19T09:44:02;9.90;99.90
5850;DHT22;2951;47.712;9.400;2023-02-19T09:46:30;10.10;99.90
5850;DHT22;2951;47.712;9.400;2023-02-19T09:49:01;10.00;99.90
5850;DHT22;2951;47.712;9.400;2023-02-19T09:51:30;10.00;99.90
5850;DHT22;2951;47.712;9.400;2023-02-19T09:53:57;10.00;99.90
5850;DHT22;2951;47.712;9.400;2023-02-19T09:56:24;10.10;99.90
5850;DHT22;2951;47.712;9.400;2023-02-19T09:58:52;10.00;99.90
5850;DHT22;2951;47.712;9.400;2023-02-19T10:01:19;10.00;99.90
5850;DHT22;2951;47.712;9.400;2023-02-19T10:03:47;9.90;99.90
5850;DHT22;2951;47.712;9.400;2023-02-19T10:06:18;9.90;99.90
5850;DHT22;2951;47.712;9.400;2023-02-19T10:08:47;10.00;99.90
5850;DHT22;2951;47.712;9.400;2023-02-19T10:11:14;10.20;99.90
5850;DHT22;2951;47.712;9.400;2023-02-19T10:16:10;10.20;99.90
5850;DHT22;2951;47.712;9.400;2023-02-19T10:18:41;10.30;99.90
5850;DHT22;2951;47.712;9.400;2023-02-19T10:21:16;10.50;99.90
5850;DHT22;2951;47.712;9.400;2023-02-19T10:23:46;10.40;99.90
5850;DHT22;2951;47.712;9.400;2023-02-19T10:26:13;10.40;99.90
5850;DHT22;2951;47.712;9.400;2023-02-19T10:28:40;10.40;99.90
5850;DHT22;2951;47.712;9.400;2023-02-19T10:31:19;10.40;99.90
5850;DHT22;2951;47.712;9.400;2023-02-19T10:33:53;10.40;99.90
5850;DHT22;2951;47.712;9.400;2023-02-19T10:38:56;10.50;99.90
5850;DHT22;2951;47.712;9.400;2023-02-19T10:41:23;10.50;99.90
5850;DHT22;2951;47.712;9.400;2023-02-19T10:46:21;10.50;99.90
5850;DHT22;2951;47.712;9.400;2023-02-19T10:48:53;10.50;99.90
5850;DHT22;2951;47.712;9.400;2023-02-19T10:51:21;10.50;99.90
5850;DHT22;2951;47.712;9.400;2023-02-19T10:54:05;10.60;99.90
5850;DHT22;2951;47.712;9.400;2023-02-19T10:56:32;10.50;99.90
5850;DHT22;2951;47.712;9.400;2023-02-19T10:59:20;10.50;99.90
5850;DHT22;2951;47.712;9.400;2023-02-19T11:04:25;10.60;99.90
5850;DHT22;2951;47.712;9.400;2023-02-19T11:06:52;10.70;99.90
5850;DHT22;2951;47.712;9.400;2023-02-19T11:11:51;10.70;99.90
5850;DHT22;2951;47.712;9.400;2023-02-19T11:14:20;10.90;99.90
5850;DHT22;2951;47.712;9.400;2023-02-19T11:16:50;11.00;99.90
5850;DHT22;2951;47.712;9.400;2023-02-19T11:19:22;11.50;99.90
5850;DHT22;2951;47.712;9.400;2023-02-19T11:21:49;11.50;99.90
5850;DHT22;2951;47.712;9.400;2023-02-19T11:27:15;11.10;99.90
5850;DHT22;2951;47.712;9.400;2023-02-19T11:29:43;11.00;99.90
5850;DHT22;2951;47.712;9.400;2023-02-19T11:32:27;10.90;99.90
5850;DHT22;2951;47.712;9.400;2023-02-19T11:37:55;10.70;99.90
5850;DHT22;2951;47.712;9.400;2023-02-19T11:40:23;10.70;99.90
5850;DHT22;2951;47.712;9.400;2023-02-19T11:42:56;10.70;99.90
5850;DHT22;2951;47.712;9.400;2023-02-19T11:45:31;10.80;99.90
5850;DHT22;2951;47.712;9.400;2023-02-19T12:00:49;10.70;99.90
5850;DHT22;2951;47.712;9.400;2023-02-19T12:19:02;10.80;99.90
5850;DHT22;2951;47.712;9.400;2023-02-19T12:21:42;10.90;99.90
5850;DHT22;2951;47.712;9.400;2023-02-19T12:34:24;10.70;99.90
5850;DHT22;2951;47.712;9.400;2023-02-19T12:44:58;10.60;99.90
5850;DHT22;2951;47.712;9.400;2023-02-19T12:47:30;10.60;99.90
5850;DHT22;2951;47.712;9.400;2023-02-19T12:50:06;10.60;99.90
5850;DHT22;2951;47.712;9.400;2023-02-19T12:52:35;10.60;99.90
5850;DHT22;2951;47.712;9.400;2023-02-19T12:55:25;10.50;99.90
5850;DHT22;2951;47.712;9.400;2023-02-19T12:57:52;10.50;99.90
5850;DHT22;2951;47.712;9.400;2023-02-19T13:00:34;10.60;99.90
5850;DHT22;2951;47.712;9.400;2023-02-19T13:03:15;10.60;99.90
5850;DHT22;2951;47.712;9.400;2023-02-19T13:05:51;10.60;99.90
5850;DHT22;2951;47.712;9.400;2023-02-19T13:08:41;10.70;99.90
5850;DHT22;2951;47.712;9.400;2023-02-19T13:11:19;10.80;99.90
5850;DHT22;2951;47.712;9.400;2023-02-19T13:13:50;10.80;99.90
5850;DHT22;2951;47.712;9.400;2023-02-19T13:16:18;10.80;99.90
5850;DHT22;2951;47.712;9.400;2023-02-19T13:18:47;10.70;99.90
5850;DHT22;2951;47.712;9.400;2023-02-19T13:21:15;10.70;99.90
5850;DHT22;2951;47.712;9.400;2023-02-19T13:24:08;10.80;99.90
5850;DHT22;2951;47.712;9.400;2023-02-19T13:34:52;11.30;99.90
5850;DHT22;2951;47.712;9.400;2023-02-19T13:37:21;11.80;99.90
5850;DHT22;2951;47.712;9.400;2023-02-19T13:39:51;12.00;99.90
5850;DHT22;2951;47.712;9.400;2023-02-19T13:42:25;12.30;99.90
5850;DHT22;2951;47.712;9.400;2023-02-19T13:44:53;12.30;99.90
5850;DHT22;2951;47.712;9.400;2023-02-19T13:50:15;12.10;99.90
5850;DHT22;2951;47.712;9.400;2023-02-19T13:52:42;12.40;99.90
5850;DHT22;2951;47.712;9.400;2023-02-19T13:58:32;12.80;99.90
5850;DHT22;2951;47.712;9.400;2023-02-19T14:00:48;13.00;99.90
5850;DHT22;2951;47.712;9.400;2023-02-19T14:03:28;12.80;99.90
5850;DHT22;2951;47.712;9.400;2023-02-19T14:05:56;13.00;99.90
5850;DHT22;2951;47.712;9.400;2023-02-19T14:08:44;12.80;99.90
5850;DHT22;2951;47.712;9.400;2023-02-19T14:11:11;13.00;99.90
5850;DHT22;2951;47.712;9.400;2023-02-19T14:19:03;12.50;99.90
5850;DHT22;2951;47.712;9.400;2023-02-19T14:21:39;12.30;99.90
5850;DHT22;2951;47.712;9.400;2023-02-19T14:24:09;12.00;99.90
5850;DHT22;2951;47.712;9.400;2023-02-19T14:26:37;12.00;99.90
5850;DHT22;2951;47.712;9.400;2023-02-19T14:29:06;11.80;99.90
5850;DHT22;2951;47.712;9.400;2023-02-19T14:31:35;12.10;99.90
5850;DHT22;2951;47.712;9.400;2023-02-19T14:34:05;12.30;99.90
5850;DHT22;2951;47.712;9.400;2023-02-19T14:39:11;12.50;99.90
5850;DHT22;2951;47.712;9.400;2023-02-19T14:41:41;12.90;99.90
5850;DHT22;2951;47.712;9.400;2023-02-19T14:44:22;13.20;99.90
5850;DHT22;2951;47.712;9.400;2023-02-19T14:46:51;13.30;99.90
5850;DHT22;2951;47.712;9.400;2023-02-19T14:49:27;13.50;99.90
5850;DHT22;2951;47.712;9.400;2023-02-19T14:51:58;13.50;99.90
5850;DHT22;2951;47.712;9.400;2023-02-19T14:54:33;13.80;99.90
5850;DHT22;2951;47.712;9.400;2023-02-19T14:57:01;13.90;99.90
5850;DHT22;2951;47.712;9.400;2023-02-19T14:59:29;13.50;99.90
5850;DHT22;2951;47.712;9.400;2023-02-19T15:02:11;13.20;99.90
5850;DHT22;2951;47.712;9.400;2023-02-19T15:04:38;13.70;99.90
5850;DHT22;2951;47.712;9.400;2023-02-19T15:07:07;13.30;99.90
5850;DHT22;2951;47.712;9.400;2023-02-19T15:09:36;13.40;99.90
5850;DHT22;2951;47.712;9.400;2023-02-19T15:12:04;12.90;99.90
5850;DHT22;2951;47.712;9.400;2023-02-19T15:14:31;12.70;99.90
5850;DHT22;2951;47.712;9.400;2023-02-19T15:17:00;13.10;99.90
5850;DHT22;2951;47.712;9.400;2023-02-19T15:19:28;13.10;99.90
5850;DHT22;2951;47.712;9.400;2023-02-19T15:21:57;12.60;99.90
5850;DHT22;2951;47.712;9.400;2023-02-19T15:24:24;12.20;99.90
5850;DHT22;2951;47.712;9.400;2023-02-19T15:26:52;12.00;99.90
5850;DHT22;2951;47.712;9.400;2023-02-19T15:29:23;12.10;99.90
5850;DHT22;2951;47.712;9.400;2023-02-19T15:31:54;12.00;99.90
5850;DHT22;2951;47.712;9.400;2023-02-19T15:34:27;12.00;99.90
5850;DHT22;2951;47.712;9.400;2023-02-19T15:37:04;11.90;99.90
5850;DHT22;2951;47.712;9.400;2023-02-19T15:39:39;11.70;99.90
5850;DHT22;2951;47.712;9.400;2023-02-19T15:42:06;11.60;99.90
5850;DHT22;2951;47.712;9.400;2023-02-19T15:44:54;11.40;99.90
5850;DHT22;2951;47.712;9.400;2023-02-19T15:50:11;11.30;99.90
5850;DHT22;2951;47.712;9.400;2023-02-19T15:52:40;11.30;99.90
5850;DHT22;2951;47.712;9.400;2023-02-19T15:57:43;11.20;99.90
5850;DHT22;2951;47.712;9.400;2023-02-19T16:00:17;11.10;99.90
5850;DHT22;2951;47.712;9.400;2023-02-19T16:02:46;11.00;99.90
5850;DHT22;2951;47.712;9.400;2023-02-19T16:05:21;11.00;99.90
5850;DHT22;2951;47.712;9.400;2023-02-19T16:08:03;10.90;99.90
5850;DHT22;2951;47.712;9.400;2023-02-19T16:10:30;10.80;99.90
5850;DHT22;2951;47.712;9.400;2023-02-19T16:12:58;10.80;99.90
5850;DHT22;2951;47.712;9.400;2023-02-19T16:15:26;10.80;99.90
5850;DHT22;2951;47.712;9.400;2023-02-19T16:17:53;10.70;99.90
5850;DHT22;2951;47.712;9.400;2023-02-19T16:20:24;10.60;99.90
5850;DHT22;2951;47.712;9.400;2023-02-19T16:22:55;10.50;99.90
5850;DHT22;2951;47.712;9.400;2023-02-19T16:25:39;10.50;99.90
5850;DHT22;2951;47.712;9.400;2023-02-19T16:28:24;10.40;99.90
5850;DHT22;2951;47.712;9.400;2023-02-19T16:30:55;10.40;99.90
5850;DHT22;2951;47.712;9.400;2023-02-19T16:33:41;10.40;99.90
5850;DHT22;2951;47.712;9.400;2023-02-19T16:38:57;10.30;99.90
5850;DHT22;2951;47.712;9.400;2023-02-19T16:41:23;10.30;99.90
5850;DHT22;2951;47.712;9.400;2023-02-19T16:43:50;10.30;99.90
5850;DHT22;2951;47.712;9.400;2023-02-19T16:46:17;10.30;99.90
5850;DHT22;2951;47.712;9.400;2023-02-19T16:48:43;10.20;99.90
5850;DHT22;2951;47.712;9.400;2023-02-19T16:51:13;10.20;99.90
5850;DHT22;2951;47.712;9.400;2023-02-19T16:53:40;10.10;99.90
5850;DHT22;2951;47.712;9.400;2023-02-19T16:56:11;10.10;99.90
5850;DHT22;2951;47.712;9.400;2023-02-19T16:58:39;10.10;99.90
5850;DHT22;2951;47.712;9.400;2023-02-19T17:01:05;10.00;99.90
5850;DHT22;2951;47.712;9.400;2023-02-19T17:03:32;10.00;99.90
5850;DHT22;2951;47.712;9.400;2023-02-19T17:05:59;10.00;99.90
5850;DHT22;2951;47.712;9.400;2023-02-19T17:10:52;10.00;99.90
5850;DHT22;2951;47.712;9.400;2023-02-19T17:13:21;10.00;99.90
5850;DHT22;2951;47.712;9.400;2023-02-19T17:15:48;10.00;99.90
5850;DHT22;2951;47.712;9.400;2023-02-19T17:18:14;10.00;99.90
5850;DHT22;2951;47.712;9.400;2023-02-19T17:20:41;10.00;99.90
5850;DHT22;2951;47.712;9.400;2023-02-19T17:23:10;10.00;99.90
5850;DHT22;2951;47.712;9.400;2023-02-19T17:25:36;10.00;99.90
5850;DHT22;2951;47.712;9.400;2023-02-19T17:28:03;10.00;99.90
5850;DHT22;2951;47.712;9.400;2023-02-19T17:30:30;9.90;99.90
5850;DHT22;2951;47.712;9.400;2023-02-19T17:32:57;9.90;99.90
5850;DHT22;2951;47.712;9.400;2023-02-19T17:35:24;9.90;99.90
5850;DHT22;2951;47.712;9.400;2023-02-19T17:37:51;9.90;99.90
5850;DHT22;2951;47.712;9.400;2023-02-19T17:40:29;10.00;99.90
5850;DHT22;2951;47.712;9.400;2023-02-19T17:42:59;9.90;99.90
5850;DHT22;2951;47.712;9.400;2023-02-19T17:45:26;9.90;99.90
5850;DHT22;2951;47.712;9.400;2023-02-19T17:47:52;9.90;99.90
5850;DHT22;2951;47.712;9.400;2023-02-19T17:50:20;9.90;99.90
5850;DHT22;2951;47.712;9.400;2023-02-19T17:52:47;9.80;99.90
5850;DHT22;2951;47.712;9.400;2023-02-19T17:55:15;9.80;99.90
5850;DHT22;2951;47.712;9.400;2023-02-19T17:57:47;9.70;99.90
5850;DHT22;2951;47.712;9.400;2023-02-19T18:00:26;9.70;99.90
5850;DHT22;2951;47.712;9.400;2023-02-19T18:02:54;9.70;99.90
5850;DHT22;2951;47.712;9.400;2023-02-19T18:05:21;9.70;99.90
5850;DHT22;2951;47.712;9.400;2023-02-19T18:07:47;9.70;99.90
5850;DHT22;2951;47.712;9.400;2023-02-19T18:10:15;9.60;99.90
5850;DHT22;2951;47.712;9.400;2023-02-19T18:12:42;9.60;99.90
5850;DHT22;2951;47.712;9.400;2023-02-19T18:15:19;9.50;99.90
5850;DHT22;2951;47.712;9.400;2023-02-19T18:17:46;9.50;99.90
5850;DHT22;2951;47.712;9.400;2023-02-19T18:20:14;9.50;99.90
5850;DHT22;2951;47.712;9.400;2023-02-19T18:22:41;9.50;99.90
5850;DHT22;2951;47.712;9.400;2023-02-19T18:25:08;9.40;99.90